sensor_id;sensor_type;location;lat;lon;timestamp;P1;durP1;ratioP1;P2;durP2;ratioP2
56297;SDS011;42208;6.376;-10.782;2023-05-07T00:00:05;32.03;;;12.77;;
56297;SDS011;42208;6.376;-10.782;2023-05-07T00:02:35;27.80;;;12.60;;
56297;SDS011;42208;6.376;-10.782;2023-05-07T00:05:04;33.80;;;12.70;;
56297;SDS011;42208;6.376;-10.782;2023-05-07T00:07:33;23.48;;;12.30;;
56297;SDS011;42208;6.376;-10.782;2023-05-07T00:10:01;28.90;;;12.43;;
56297;SDS011;42208;6.376;-10.782;2023-05-07T00:12:30;24.67;;;13.10;;
56297;SDS011;42208;6.376;-10.782;2023-05-07T00:15:00;26.88;;;12.75;;
56297;SDS011;42208;6.376;-10.782;2023-05-07T00:17:29;23.70;;;12.73;;
56297;SDS011;42208;6.376;-10.782;2023-05-07T00:19:58;25.52;;;12.00;;
56297;SDS011;42208;6.376;-10.782;2023-05-07T00:22:26;28.63;;;12.77;;
56297;SDS011;42208;6.376;-10.782;2023-05-07T00:24:55;38.20;;;14.75;;
56297;SDS011;42208;6.376;-10.782;2023-05-07T00:27:24;22.83;;;11.80;;
56297;SDS011;42208;6.376;-10.782;2023-05-07T00:29:53;27.85;;;11.25;;
56297;SDS011;42208;6.376;-10.782;2023-05-07T00:32:21;22.92;;;11.65;;
56297;SDS011;42208;6.376;-10.782;2023-05-07T00:34:49;27.80;;;11.93;;
56297;SDS011;42208;6.376;-10.782;2023-05-07T00:37:18;29.58;;;13.40;;
56297;SDS011;42208;6.376;-10.782;2023-05-07T00:39:46;23.48;;;12.13;;
56297;SDS011;42208;6.376;-10.782;2023-05-07T00:42:14;33.30;;;12.48;;
56297;SDS011;42208;6.376;-10.782;2023-05-07T00:44:43;39.10;;;14.73;;
56297;SDS011;42208;6.376;-10.782;2023-05-07T00:47:11;26.50;;;12.57;;
56297;SDS011;42208;6.376;-10.782;2023-05-07T00:49:43;34.00;;;15.25;;
56297;SDS011;42208;6.376;-10.782;2023-05-07T00:52:13;32.45;;;13.45;;
56297;SDS011;42208;6.376;-10.782;2023-05-07T00:54:43;29.45;;;12.40;;
56297;SDS011;42208;6.376;-10.782;2023-05-07T00:57:12;28.10;;;12.32;;
56297;SDS011;42208;6.376;-10.782;2023-05-07T00:59:41;33.20;;;12.05;;
56297;SDS011;42208;6.376;-10.782;2023-05-07T01:02:09;31.38;;;12.55;;
56297;SDS011;42208;6.376;-10.782;2023-05-07T01:04:38;27.77;;;12.88;;
56297;SDS011;42208;6.376;-10.782;2023-05-07T01:07:07;30.15;;;13.25;;
56297;SDS011;42208;6.376;-10.782;2023-05-07T01:09:35;22.00;;;12.40;;
56297;SDS011;42208;6.376;-10.782;2023-05-07T01:12:05;30.75;;;12.75;;
56297;SDS011;42208;6.376;-10.782;2023-05-07T01:14:34;26.83;;;12.02;;
56297;SDS011;42208;6.376;-10.782;2023-05-07T01:17:02;27.35;;;10.60;;
56297;SDS011;42208;6.376;-10.782;2023-05-07T01:19:31;30.42;;;11.00;;
56297;SDS011;42208;6.376;-10.782;2023-05-07T01:22:04;32.58;;;10.55;;
56297;SDS011;42208;6.376;-10.782;2023-05-07T01:24:46;27.35;;;11.07;;
56297;SDS011;42208;6.376;-10.782;2023-05-07T01:27:16;26.33;;;12.38;;
56297;SDS011;42208;6.376;-10.782;2023-05-07T01:29:46;23.33;;;11.35;;
56297;SDS011;42208;6.376;-10.782;2023-05-07T01:32:14;30.15;;;13.27;;
56297;SDS011;42208;6.376;-10.782;2023-05-07T01:34:48;22.60;;;11.88;;
56297;SDS011;42208;6.376;-10.782;2023-05-07T01:37:19;36.75;;;14.25;;
56297;SDS011;42208;6.376;-10.782;2023-05-07T01:39:49;27.83;;;12.07;;
56297;SDS011;42208;6.376;-10.782;2023-05-07T01:42:17;26.35;;;12.57;;
56297;SDS011;42208;6.376;-10.782;2023-05-07T01:44:45;29.15;;;12.60;;
56297;SDS011;42208;6.376;-10.782;2023-05-07T01:47:14;21.10;;;10.23;;
56297;SDS011;42208;6.376;-10.782;2023-05-07T01:49:43;27.70;;;9.60;;
56297;SDS011;42208;6.376;-10.782;2023-05-07T01:52:11;23.15;;;9.98;;
56297;SDS011;42208;6.376;-10.782;2023-05-07T01:54:40;29.67;;;8.95;;
56297;SDS011;42208;6.376;-10.782;2023-05-07T01:57:08;20.02;;;9.30;;
56297;SDS011;42208;6.376;-10.782;2023-05-07T01:59:37;19.42;;;9.10;;
56297;SDS011;42208;6.376;-10.782;2023-05-07T02:02:05;18.90;;;8.57;;
56297;SDS011;42208;6.376;-10.782;2023-05-07T02:04:35;29.42;;;9.13;;
56297;SDS011;42208;6.376;-10.782;2023-05-07T02:07:04;20.38;;;8.18;;
56297;SDS011;42208;6.376;-10.782;2023-05-07T02:09:32;21.05;;;9.30;;
56297;SDS011;42208;6.376;-10.782;2023-05-07T02:12:01;30.80;;;8.65;;
56297;SDS011;42208;6.376;-10.782;2023-05-07T02:14:30;21.58;;;8.25;;
56297;SDS011;42208;6.376;-10.782;2023-05-07T02:16:58;27.08;;;9.48;;
56297;SDS011;42208;6.376;-10.782;2023-05-07T02:19:26;16.58;;;8.60;;
56297;SDS011;42208;6.376;-10.782;2023-05-07T02:21:54;19.85;;;8.82;;
56297;SDS011;42208;6.376;-10.782;2023-05-07T02:24:23;15.43;;;7.68;;
56297;SDS011;42208;6.376;-10.782;2023-05-07T02:26:51;25.27;;;9.25;;
56297;SDS011;42208;6.376;-10.782;2023-05-07T02:29:20;18.83;;;8.20;;
56297;SDS011;42208;6.376;-10.782;2023-05-07T02:31:48;19.00;;;8.02;;
56297;SDS011;42208;6.376;-10.782;2023-05-07T02:34:17;27.48;;;8.88;;
56297;SDS011;42208;6.376;-10.782;2023-05-07T02:36:45;28.27;;;9.52;;
56297;SDS011;42208;6.376;-10.782;2023-05-07T02:39:17;19.77;;;8.75;;
56297;SDS011;42208;6.376;-10.782;2023-05-07T02:41:46;22.60;;;9.23;;
56297;SDS011;42208;6.376;-10.782;2023-05-07T02:44:14;19.17;;;8.00;;
56297;SDS011;42208;6.376;-10.782;2023-05-07T02:46:46;23.10;;;9.50;;
56297;SDS011;42208;6.376;-10.782;2023-05-07T02:49:15;23.52;;;10.52;;
56297;SDS011;42208;6.376;-10.782;2023-05-07T02:51:43;28.83;;;9.43;;
56297;SDS011;42208;6.376;-10.782;2023-05-07T02:54:17;30.83;;;10.82;;
56297;SDS011;42208;6.376;-10.782;2023-05-07T02:56:46;40.13;;;13.32;;
56297;SDS011;42208;6.376;-10.782;2023-05-07T02:59:14;35.92;;;14.93;;
56297;SDS011;42208;6.376;-10.782;2023-05-07T03:01:42;49.13;;;15.48;;
56297;SDS011;42208;6.376;-10.782;2023-05-07T03:04:11;39.78;;;15.43;;
56297;SDS011;42208;6.376;-10.782;2023-05-07T03:06:40;50.92;;;15.55;;
56297;SDS011;42208;6.376;-10.782;2023-05-07T03:09:08;36.42;;;15.13;;
56297;SDS011;42208;6.376;-10.782;2023-05-07T03:11:36;35.55;;;13.45;;
56297;SDS011;42208;6.376;-10.782;2023-05-07T03:14:05;34.97;;;13.60;;
56297;SDS011;42208;6.376;-10.782;2023-05-07T03:16:33;37.40;;;13.02;;
56297;SDS011;42208;6.376;-10.782;2023-05-07T03:19:02;33.08;;;12.90;;
56297;SDS011;42208;6.376;-10.782;2023-05-07T03:21:30;38.70;;;13.93;;
56297;SDS011;42208;6.376;-10.782;2023-05-07T03:23:59;38.92;;;12.30;;
56297;SDS011;42208;6.376;-10.782;2023-05-07T03:26:27;28.65;;;10.48;;
56297;SDS011;42208;6.376;-10.782;2023-05-07T03:28:55;25.50;;;10.43;;
56297;SDS011;42208;6.376;-10.782;2023-05-07T03:31:24;28.45;;;11.45;;
56297;SDS011;42208;6.376;-10.782;2023-05-07T03:33:53;31.40;;;11.68;;
56297;SDS011;42208;6.376;-10.782;2023-05-07T03:36:23;18.48;;;9.63;;
56297;SDS011;42208;6.376;-10.782;2023-05-07T03:38:52;32.22;;;11.18;;
56297;SDS011;42208;6.376;-10.782;2023-05-07T03:41:23;28.13;;;10.88;;
56297;SDS011;42208;6.376;-10.782;2023-05-07T03:43:52;29.92;;;11.82;;
56297;SDS011;42208;6.376;-10.782;2023-05-07T03:46:20;29.65;;;10.98;;
56297;SDS011;42208;6.376;-10.782;2023-05-07T03:48:49;22.85;;;10.90;;
56297;SDS011;42208;6.376;-10.782;2023-05-07T03:51:19;31.48;;;11.32;;
56297;SDS011;42208;6.376;-10.782;2023-05-07T03:53:47;21.60;;;9.77;;
56297;SDS011;42208;6.376;-10.782;2023-05-07T03:56:16;23.15;;;9.95;;
56297;SDS011;42208;6.376;-10.782;2023-05-07T03:58:47;20.30;;;9.60;;
56297;SDS011;42208;6.376;-10.782;2023-05-07T04:01:15;33.10;;;11.35;;
56297;SDS011;42208;6.376;-10.782;2023-05-07T04:03:43;20.75;;;10.68;;
56297;SDS011;42208;6.376;-10.782;2023-05-07T04:06:12;27.33;;;9.82;;
56297;SDS011;42208;6.376;-10.782;2023-05-07T04:08:43;29.98;;;10.90;;
56297;SDS011;42208;6.376;-10.782;2023-05-07T04:11:12;23.13;;;10.50;;
56297;SDS011;42208;6.376;-10.782;2023-05-07T04:13:41;26.95;;;10.55;;
56297;SDS011;42208;6.376;-10.782;2023-05-07T04:16:09;26.60;;;9.85;;
56297;SDS011;42208;6.376;-10.782;2023-05-07T04:18:38;24.10;;;11.27;;
56297;SDS011;42208;6.376;-10.782;2023-05-07T04:21:13;25.17;;;11.00;;
56297;SDS011;42208;6.376;-10.782;2023-05-07T04:23:43;23.80;;;9.43;;
56297;SDS011;42208;6.376;-10.782;2023-05-07T04:26:13;21.65;;;9.35;;
56297;SDS011;42208;6.376;-10.782;2023-05-07T04:28:43;21.63;;;9.52;;
56297;SDS011;42208;6.376;-10.782;2023-05-07T04:31:12;21.08;;;8.73;;
56297;SDS011;42208;6.376;-10.782;2023-05-07T04:33:40;22.40;;;8.98;;
56297;SDS011;42208;6.376;-10.782;2023-05-07T04:36:11;23.33;;;8.50;;
56297;SDS011;42208;6.376;-10.782;2023-05-07T04:38:48;18.55;;;8.77;;
56297;SDS011;42208;6.376;-10.782;2023-05-07T04:41:18;19.75;;;8.13;;
56297;SDS011;42208;6.376;-10.782;2023-05-07T04:43:47;13.80;;;7.93;;
56297;SDS011;42208;6.376;-10.782;2023-05-07T04:46:17;18.05;;;8.73;;
56297;SDS011;42208;6.376;-10.782;2023-05-07T04:48:47;14.88;;;7.88;;
56297;SDS011;42208;6.376;-10.782;2023-05-07T04:51:16;19.52;;;8.32;;
56297;SDS011;42208;6.376;-10.782;2023-05-07T04:53:44;21.08;;;8.90;;
56297;SDS011;42208;6.376;-10.782;2023-05-07T04:56:12;18.00;;;7.70;;
56297;SDS011;42208;6.376;-10.782;2023-05-07T04:58:43;17.83;;;8.45;;
56297;SDS011;42208;6.376;-10.782;2023-05-07T05:01:11;20.05;;;8.23;;
56297;SDS011;42208;6.376;-10.782;2023-05-07T05:03:41;17.40;;;7.28;;
56297;SDS011;42208;6.376;-10.782;2023-05-07T05:06:09;18.95;;;8.00;;
56297;SDS011;42208;6.376;-10.782;2023-05-07T05:08:38;21.27;;;8.55;;
56297;SDS011;42208;6.376;-10.782;2023-05-07T05:11:06;21.05;;;8.95;;
56297;SDS011;42208;6.376;-10.782;2023-05-07T05:13:35;19.27;;;8.00;;
56297;SDS011;42208;6.376;-10.782;2023-05-07T05:16:14;24.25;;;7.88;;
56297;SDS011;42208;6.376;-10.782;2023-05-07T05:18:43;17.73;;;7.78;;
56297;SDS011;42208;6.376;-10.782;2023-05-07T05:21:14;17.10;;;8.90;;
56297;SDS011;42208;6.376;-10.782;2023-05-07T05:23:44;19.98;;;9.95;;
56297;SDS011;42208;6.376;-10.782;2023-05-07T05:26:16;20.83;;;11.13;;
56297;SDS011;42208;6.376;-10.782;2023-05-07T05:28:45;21.80;;;11.02;;
56297;SDS011;42208;6.376;-10.782;2023-05-07T05:31:16;25.08;;;11.43;;
56297;SDS011;42208;6.376;-10.782;2023-05-07T05:33:45;27.83;;;10.13;;
56297;SDS011;42208;6.376;-10.782;2023-05-07T05:36:13;23.45;;;9.18;;
56297;SDS011;42208;6.376;-10.782;2023-05-07T05:38:43;21.02;;;9.07;;
56297;SDS011;42208;6.376;-10.782;2023-05-07T05:41:12;22.42;;;8.85;;
56297;SDS011;42208;6.376;-10.782;2023-05-07T05:43:41;18.40;;;8.85;;
56297;SDS011;42208;6.376;-10.782;2023-05-07T05:46:10;19.45;;;9.13;;
56297;SDS011;42208;6.376;-10.782;2023-05-07T05:48:38;16.95;;;8.23;;
56297;SDS011;42208;6.376;-10.782;2023-05-07T05:51:09;19.15;;;9.43;;
56297;SDS011;42208;6.376;-10.782;2023-05-07T05:53:37;17.05;;;8.57;;
56297;SDS011;42208;6.376;-10.782;2023-05-07T05:56:06;19.35;;;8.63;;
56297;SDS011;42208;6.376;-10.782;2023-05-07T05:58:36;24.40;;;9.95;;
56297;SDS011;42208;6.376;-10.782;2023-05-07T06:01:06;27.05;;;10.32;;
56297;SDS011;42208;6.376;-10.782;2023-05-07T06:03:36;23.75;;;9.23;;
56297;SDS011;42208;6.376;-10.782;2023-05-07T06:06:10;19.02;;;9.82;;
56297;SDS011;42208;6.376;-10.782;2023-05-07T06:08:38;27.80;;;9.80;;
56297;SDS011;42208;6.376;-10.782;2023-05-07T06:11:08;20.30;;;8.95;;
56297;SDS011;42208;6.376;-10.782;2023-05-07T06:13:39;25.48;;;9.27;;
56297;SDS011;42208;6.376;-10.782;2023-05-07T06:16:08;19.88;;;9.02;;
56297;SDS011;42208;6.376;-10.782;2023-05-07T06:18:36;23.63;;;8.20;;
56297;SDS011;42208;6.376;-10.782;2023-05-07T06:21:05;17.70;;;9.10;;
56297;SDS011;42208;6.376;-10.782;2023-05-07T06:23:34;20.27;;;8.60;;
56297;SDS011;42208;6.376;-10.782;2023-05-07T06:26:04;20.92;;;9.48;;
56297;SDS011;42208;6.376;-10.782;2023-05-07T06:28:38;13.25;;;8.68;;
56297;SDS011;42208;6.376;-10.782;2023-05-07T06:31:13;14.63;;;7.88;;
56297;SDS011;42208;6.376;-10.782;2023-05-07T06:33:49;18.77;;;8.70;;
56297;SDS011;42208;6.376;-10.782;2023-05-07T06:36:18;23.33;;;10.25;;
56297;SDS011;42208;6.376;-10.782;2023-05-07T06:38:47;24.75;;;9.55;;
56297;SDS011;42208;6.376;-10.782;2023-05-07T06:41:15;17.60;;;9.52;;
56297;SDS011;42208;6.376;-10.782;2023-05-07T06:43:43;27.77;;;9.82;;
56297;SDS011;42208;6.376;-10.782;2023-05-07T06:46:38;27.20;;;12.15;;
56297;SDS011;42208;6.376;-10.782;2023-05-07T06:49:09;29.10;;;10.70;;
56297;SDS011;42208;6.376;-10.782;2023-05-07T06:51:37;22.38;;;10.52;;
56297;SDS011;42208;6.376;-10.782;2023-05-07T06:54:06;23.02;;;8.93;;
56297;SDS011;42208;6.376;-10.782;2023-05-07T06:56:37;21.45;;;10.25;;
56297;SDS011;42208;6.376;-10.782;2023-05-07T06:59:06;20.02;;;8.80;;
56297;SDS011;42208;6.376;-10.782;2023-05-07T07:01:38;18.80;;;8.95;;
56297;SDS011;42208;6.376;-10.782;2023-05-07T07:04:08;21.08;;;9.10;;
56297;SDS011;42208;6.376;-10.782;2023-05-07T07:06:38;17.48;;;8.45;;
56297;SDS011;42208;6.376;-10.782;2023-05-07T07:09:10;22.10;;;10.20;;
56297;SDS011;42208;6.376;-10.782;2023-05-07T07:11:39;21.60;;;11.43;;
56297;SDS011;42208;6.376;-10.782;2023-05-07T07:14:08;18.63;;;9.75;;
56297;SDS011;42208;6.376;-10.782;2023-05-07T07:16:43;26.08;;;10.95;;
56297;SDS011;42208;6.376;-10.782;2023-05-07T07:19:13;25.63;;;10.23;;
56297;SDS011;42208;6.376;-10.782;2023-05-07T07:21:42;26.35;;;10.35;;
56297;SDS011;42208;6.376;-10.782;2023-05-07T07:24:13;22.13;;;10.38;;
56297;SDS011;42208;6.376;-10.782;2023-05-07T07:26:42;25.83;;;10.88;;
56297;SDS011;42208;6.376;-10.782;2023-05-07T07:29:10;16.35;;;10.23;;
56297;SDS011;42208;6.376;-10.782;2023-05-07T07:31:40;20.50;;;10.45;;
56297;SDS011;42208;6.376;-10.782;2023-05-07T07:34:09;21.40;;;9.32;;
56297;SDS011;42208;6.376;-10.782;2023-05-07T07:36:37;15.70;;;8.82;;
56297;SDS011;42208;6.376;-10.782;2023-05-07T07:39:16;20.63;;;10.15;;
56297;SDS011;42208;6.376;-10.782;2023-05-07T07:41:46;17.20;;;9.30;;
56297;SDS011;42208;6.376;-10.782;2023-05-07T07:44:15;20.52;;;10.25;;
56297;SDS011;42208;6.376;-10.782;2023-05-07T07:46:48;22.67;;;9.05;;
56297;SDS011;42208;6.376;-10.782;2023-05-07T07:49:18;24.20;;;9.65;;
56297;SDS011;42208;6.376;-10.782;2023-05-07T07:51:46;15.75;;;9.45;;
56297;SDS011;42208;6.376;-10.782;2023-05-07T07:54:15;17.85;;;9.55;;
56297;SDS011;42208;6.376;-10.782;2023-05-07T07:56:44;17.58;;;9.27;;
56297;SDS011;42208;6.376;-10.782;2023-05-07T07:59:14;26.17;;;10.18;;
56297;SDS011;42208;6.376;-10.782;2023-05-07T08:01:42;14.98;;;8.43;;
56297;SDS011;42208;6.376;-10.782;2023-05-07T08:04:11;18.60;;;8.05;;
56297;SDS011;42208;6.376;-10.782;2023-05-07T08:06:41;21.70;;;8.13;;
56297;SDS011;42208;6.376;-10.782;2023-05-07T08:09:10;18.25;;;9.23;;
56297;SDS011;42208;6.376;-10.782;2023-05-07T08:11:40;18.30;;;8.00;;
56297;SDS011;42208;6.376;-10.782;2023-05-07T08:14:09;17.30;;;8.07;;
56297;SDS011;42208;6.376;-10.782;2023-05-07T08:16:38;31.20;;;9.77;;
56297;SDS011;42208;6.376;-10.782;2023-05-07T08:19:07;19.38;;;9.15;;
56297;SDS011;42208;6.376;-10.782;2023-05-07T08:21:38;23.48;;;10.15;;
56297;SDS011;42208;6.376;-10.782;2023-05-07T08:24:08;23.55;;;10.25;;
56297;SDS011;42208;6.376;-10.782;2023-05-07T08:26:37;19.88;;;9.18;;
56297;SDS011;42208;6.376;-10.782;2023-05-07T08:29:06;19.25;;;8.55;;
56297;SDS011;42208;6.376;-10.782;2023-05-07T08:31:35;22.63;;;9.82;;
56297;SDS011;42208;6.376;-10.782;2023-05-07T08:34:03;22.08;;;9.25;;
56297;SDS011;42208;6.376;-10.782;2023-05-07T08:36:38;21.88;;;8.48;;
56297;SDS011;42208;6.376;-10.782;2023-05-07T08:39:06;22.90;;;9.38;;
56297;SDS011;42208;6.376;-10.782;2023-05-07T08:41:35;24.52;;;10.50;;
56297;SDS011;42208;6.376;-10.782;2023-05-07T08:44:03;21.60;;;10.90;;
56297;SDS011;42208;6.376;-10.782;2023-05-07T08:46:39;25.92;;;9.40;;
56297;SDS011;42208;6.376;-10.782;2023-05-07T08:49:09;19.80;;;8.05;;
56297;SDS011;42208;6.376;-10.782;2023-05-07T08:51:37;16.13;;;8.55;;
56297;SDS011;42208;6.376;-10.782;2023-05-07T08:54:06;18.65;;;8.35;;
56297;SDS011;42208;6.376;-10.782;2023-05-07T08:56:36;21.90;;;9.10;;
56297;SDS011;42208;6.376;-10.782;2023-05-07T08:59:05;18.08;;;8.65;;
56297;SDS011;42208;6.376;-10.782;2023-05-07T09:01:33;25.52;;;8.75;;
56297;SDS011;42208;6.376;-10.782;2023-05-07T09:04:02;27.90;;;9.50;;
56297;SDS011;42208;6.376;-10.782;2023-05-07T09:06:33;25.40;;;10.00;;
56297;SDS011;42208;6.376;-10.782;2023-05-07T09:09:01;17.52;;;8.60;;
56297;SDS011;42208;6.376;-10.782;2023-05-07T09:11:30;18.77;;;9.07;;
56297;SDS011;42208;6.376;-10.782;2023-05-07T09:14:00;21.10;;;9.63;;
56297;SDS011;42208;6.376;-10.782;2023-05-07T09:16:33;21.45;;;8.77;;
56297;SDS011;42208;6.376;-10.782;2023-05-07T09:19:03;23.70;;;8.82;;
56297;SDS011;42208;6.376;-10.782;2023-05-07T09:21:33;27.00;;;9.68;;
56297;SDS011;42208;6.376;-10.782;2023-05-07T09:24:05;20.17;;;10.27;;
56297;SDS011;42208;6.376;-10.782;2023-05-07T09:26:38;21.85;;;9.35;;
56297;SDS011;42208;6.376;-10.782;2023-05-07T09:29:09;19.42;;;9.15;;
56297;SDS011;42208;6.376;-10.782;2023-05-07T09:31:39;29.63;;;10.20;;
56297;SDS011;42208;6.376;-10.782;2023-05-07T09:34:11;30.33;;;10.30;;
56297;SDS011;42208;6.376;-10.782;2023-05-07T09:36:43;26.00;;;9.80;;
56297;SDS011;42208;6.376;-10.782;2023-05-07T09:39:13;17.83;;;8.05;;
56297;SDS011;42208;6.376;-10.782;2023-05-07T09:41:45;27.80;;;10.32;;
56297;SDS011;42208;6.376;-10.782;2023-05-07T09:44:21;20.42;;;9.10;;
56297;SDS011;42208;6.376;-10.782;2023-05-07T09:46:53;24.02;;;9.00;;
56297;SDS011;42208;6.376;-10.782;2023-05-07T09:49:30;19.70;;;8.10;;
56297;SDS011;42208;6.376;-10.782;2023-05-07T09:52:06;16.15;;;8.82;;
56297;SDS011;42208;6.376;-10.782;2023-05-07T09:54:38;20.25;;;8.98;;
56297;SDS011;42208;6.376;-10.782;2023-05-07T09:57:07;19.75;;;10.07;;
56297;SDS011;42208;6.376;-10.782;2023-05-07T09:59:40;21.55;;;9.77;;
56297;SDS011;42208;6.376;-10.782;2023-05-07T10:02:14;27.42;;;10.38;;
56297;SDS011;42208;6.376;-10.782;2023-05-07T10:04:51;21.90;;;9.38;;
56297;SDS011;42208;6.376;-10.782;2023-05-07T10:07:27;16.27;;;9.43;;
56297;SDS011;42208;6.376;-10.782;2023-05-07T10:10:03;18.52;;;10.07;;
56297;SDS011;42208;6.376;-10.782;2023-05-07T10:12:39;25.63;;;10.75;;
56297;SDS011;42208;6.376;-10.782;2023-05-07T10:15:15;24.17;;;11.23;;
56297;SDS011;42208;6.376;-10.782;2023-05-07T10:17:51;21.83;;;10.15;;
56297;SDS011;42208;6.376;-10.782;2023-05-07T10:20:22;18.00;;;10.75;;
56297;SDS011;42208;6.376;-10.782;2023-05-07T10:22:54;25.13;;;10.77;;
56297;SDS011;42208;6.376;-10.782;2023-05-07T10:25:32;33.35;;;10.73;;
56297;SDS011;42208;6.376;-10.782;2023-05-07T10:28:08;27.48;;;11.18;;
56297;SDS011;42208;6.376;-10.782;2023-05-07T10:34:02;31.98;;;11.10;;
56297;SDS011;42208;6.376;-10.782;2023-05-07T10:36:40;28.90;;;9.93;;
56297;SDS011;42208;6.376;-10.782;2023-05-07T10:41:03;20.13;;;9.55;;
56297;SDS011;42208;6.376;-10.782;2023-05-07T10:43:44;24.07;;;9.93;;
56297;SDS011;42208;6.376;-10.782;2023-05-07T10:48:13;23.23;;;9.88;;
56297;SDS011;42208;6.376;-10.782;2023-05-07T10:58:51;20.30;;;9.45;;
56297;SDS011;42208;6.376;-10.782;2023-05-07T11:04:49;31.13;;;8.43;;
56297;SDS011;42208;6.376;-10.782;2023-05-07T11:08:06;20.15;;;8.82;;
56297;SDS011;42208;6.376;-10.782;2023-05-07T11:10:59;26.25;;;8.75;;
56297;SDS011;42208;6.376;-10.782;2023-05-07T11:16:34;18.30;;;8.00;;
56297;SDS011;42208;6.376;-10.782;2023-05-07T11:19:17;20.90;;;8.35;;
56297;SDS011;42208;6.376;-10.782;2023-05-07T11:25:09;18.02;;;8.15;;
56297;SDS011;42208;6.376;-10.782;2023-05-07T11:27:46;15.45;;;7.72;;
56297;SDS011;42208;6.376;-10.782;2023-05-07T11:30:18;21.05;;;8.45;;
56297;SDS011;42208;6.376;-10.782;2023-05-07T11:32:48;23.80;;;11.25;;
56297;SDS011;42208;6.376;-10.782;2023-05-07T11:35:17;21.75;;;8.45;;
56297;SDS011;42208;6.376;-10.782;2023-05-07T11:37:50;24.50;;;7.82;;
56297;SDS011;42208;6.376;-10.782;2023-05-07T11:40:28;18.50;;;7.63;;
56297;SDS011;42208;6.376;-10.782;2023-05-07T11:42:56;17.27;;;8.20;;
56297;SDS011;42208;6.376;-10.782;2023-05-07T11:45:25;21.02;;;7.40;;
56297;SDS011;42208;6.376;-10.782;2023-05-07T11:47:53;19.05;;;6.13;;
56297;SDS011;42208;6.376;-10.782;2023-05-07T11:50:22;26.75;;;8.50;;
56297;SDS011;42208;6.376;-10.782;2023-05-07T11:52:51;20.55;;;6.93;;
56297;SDS011;42208;6.376;-10.782;2023-05-07T11:55:19;32.83;;;7.13;;
56297;SDS011;42208;6.376;-10.782;2023-05-07T11:57:47;24.27;;;7.65;;
56297;SDS011;42208;6.376;-10.782;2023-05-07T12:00:16;26.00;;;6.05;;
56297;SDS011;42208;6.376;-10.782;2023-05-07T12:02:45;15.75;;;6.43;;
56297;SDS011;42208;6.376;-10.782;2023-05-07T12:05:14;18.10;;;6.03;;
56297;SDS011;42208;6.376;-10.782;2023-05-07T12:07:48;29.42;;;9.50;;
56297;SDS011;42208;6.376;-10.782;2023-05-07T12:10:24;19.35;;;6.97;;
56297;SDS011;42208;6.376;-10.782;2023-05-07T12:12:53;23.15;;;5.85;;
56297;SDS011;42208;6.376;-10.782;2023-05-07T12:15:24;28.60;;;7.05;;
56297;SDS011;42208;6.376;-10.782;2023-05-07T12:17:53;18.60;;;6.75;;
56297;SDS011;42208;6.376;-10.782;2023-05-07T12:20:21;18.65;;;5.85;;
56297;SDS011;42208;6.376;-10.782;2023-05-07T12:22:50;21.13;;;5.65;;
56297;SDS011;42208;6.376;-10.782;2023-05-07T12:25:19;11.50;;;5.53;;
56297;SDS011;42208;6.376;-10.782;2023-05-07T12:27:56;25.30;;;7.15;;
56297;SDS011;42208;6.376;-10.782;2023-05-07T12:30:25;28.58;;;8.82;;
56297;SDS011;42208;6.376;-10.782;2023-05-07T12:32:53;20.88;;;7.75;;
56297;SDS011;42208;6.376;-10.782;2023-05-07T12:35:26;21.85;;;7.75;;
56297;SDS011;42208;6.376;-10.782;2023-05-07T12:38:04;27.27;;;7.43;;
56297;SDS011;42208;6.376;-10.782;2023-05-07T12:40:39;29.48;;;8.95;;
56297;SDS011;42208;6.376;-10.782;2023-05-07T12:43:08;36.13;;;9.25;;
56297;SDS011;42208;6.376;-10.782;2023-05-07T12:45:53;25.35;;;7.15;;
56297;SDS011;42208;6.376;-10.782;2023-05-07T12:48:23;28.05;;;7.45;;
56297;SDS011;42208;6.376;-10.782;2023-05-07T12:50:52;19.42;;;5.50;;
56297;SDS011;42208;6.376;-10.782;2023-05-07T12:53:24;21.10;;;5.18;;
56297;SDS011;42208;6.376;-10.782;2023-05-07T12:55:55;14.43;;;4.83;;
56297;SDS011;42208;6.376;-10.782;2023-05-07T12:58:29;40.55;;;6.32;;
56297;SDS011;42208;6.376;-10.782;2023-05-07T13:00:59;30.92;;;7.32;;
56297;SDS011;42208;6.376;-10.782;2023-05-07T13:03:35;39.70;;;8.23;;
56297;SDS011;42208;6.376;-10.782;2023-05-07T13:06:06;28.40;;;6.63;;
56297;SDS011;42208;6.376;-10.782;2023-05-07T13:08:36;26.02;;;9.35;;
56297;SDS011;42208;6.376;-10.782;2023-05-07T13:11:08;19.10;;;8.55;;
56297;SDS011;42208;6.376;-10.782;2023-05-07T13:13:37;20.05;;;9.10;;
56297;SDS011;42208;6.376;-10.782;2023-05-07T13:16:07;29.15;;;8.77;;
56297;SDS011;42208;6.376;-10.782;2023-05-07T13:18:38;20.60;;;7.85;;
56297;SDS011;42208;6.376;-10.782;2023-05-07T13:21:07;25.15;;;8.50;;
56297;SDS011;42208;6.376;-10.782;2023-05-07T13:23:35;23.10;;;8.63;;
56297;SDS011;42208;6.376;-10.782;2023-05-07T13:26:04;23.75;;;8.45;;
56297;SDS011;42208;6.376;-10.782;2023-05-07T13:28:54;22.67;;;9.20;;
56297;SDS011;42208;6.376;-10.782;2023-05-07T13:31:23;33.35;;;8.70;;
56297;SDS011;42208;6.376;-10.782;2023-05-07T13:33:52;25.40;;;8.40;;
56297;SDS011;42208;6.376;-10.782;2023-05-07T13:36:22;17.98;;;6.78;;
56297;SDS011;42208;6.376;-10.782;2023-05-07T13:38:51;19.58;;;5.97;;
56297;SDS011;42208;6.376;-10.782;2023-05-07T13:41:19;27.00;;;6.80;;
56297;SDS011;42208;6.376;-10.782;2023-05-07T13:43:47;15.35;;;6.05;;
56297;SDS011;42208;6.376;-10.782;2023-05-07T13:46:16;22.15;;;6.65;;
56297;SDS011;42208;6.376;-10.782;2023-05-07T13:48:44;19.17;;;6.00;;
56297;SDS011;42208;6.376;-10.782;2023-05-07T13:51:13;19.08;;;6.93;;
56297;SDS011;42208;6.376;-10.782;2023-05-07T13:53:41;26.17;;;6.63;;
56297;SDS011;42208;6.376;-10.782;2023-05-07T13:56:10;23.92;;;7.07;;
56297;SDS011;42208;6.376;-10.782;2023-05-07T13:58:38;18.42;;;6.50;;
56297;SDS011;42208;6.376;-10.782;2023-05-07T14:01:22;28.90;;;7.35;;
56297;SDS011;42208;6.376;-10.782;2023-05-07T14:03:50;26.05;;;5.75;;
56297;SDS011;42208;6.376;-10.782;2023-05-07T14:06:19;23.55;;;7.00;;
56297;SDS011;42208;6.376;-10.782;2023-05-07T14:08:48;23.35;;;6.65;;
56297;SDS011;42208;6.376;-10.782;2023-05-07T14:11:16;27.80;;;6.95;;
56297;SDS011;42208;6.376;-10.782;2023-05-07T14:13:45;32.85;;;7.55;;
56297;SDS011;42208;6.376;-10.782;2023-05-07T14:16:14;27.10;;;6.03;;
56297;SDS011;42208;6.376;-10.782;2023-05-07T14:18:42;17.48;;;4.85;;
56297;SDS011;42208;6.376;-10.782;2023-05-07T14:21:11;14.20;;;5.03;;
56297;SDS011;42208;6.376;-10.782;2023-05-07T14:23:39;12.25;;;4.80;;
56297;SDS011;42208;6.376;-10.782;2023-05-07T14:26:07;17.15;;;4.93;;
56297;SDS011;42208;6.376;-10.782;2023-05-07T14:28:36;21.80;;;7.53;;
56297;SDS011;42208;6.376;-10.782;2023-05-07T14:31:04;22.17;;;6.57;;
56297;SDS011;42208;6.376;-10.782;2023-05-07T14:33:33;25.45;;;5.38;;
56297;SDS011;42208;6.376;-10.782;2023-05-07T14:36:01;19.50;;;6.45;;
56297;SDS011;42208;6.376;-10.782;2023-05-07T14:38:30;23.35;;;5.95;;
56297;SDS011;42208;6.376;-10.782;2023-05-07T14:40:58;14.52;;;5.85;;
56297;SDS011;42208;6.376;-10.782;2023-05-07T14:43:27;19.67;;;6.03;;
56297;SDS011;42208;6.376;-10.782;2023-05-07T14:45:56;20.42;;;6.70;;
56297;SDS011;42208;6.376;-10.782;2023-05-07T14:48:24;22.38;;;6.90;;
56297;SDS011;42208;6.376;-10.782;2023-05-07T14:50:53;14.68;;;5.50;;
56297;SDS011;42208;6.376;-10.782;2023-05-07T14:53:22;12.90;;;4.57;;
56297;SDS011;42208;6.376;-10.782;2023-05-07T14:55:51;19.35;;;5.03;;
56297;SDS011;42208;6.376;-10.782;2023-05-07T14:58:20;14.95;;;4.10;;